Colton, California
Current Conditions -  °F | °C
As of 7:50 PM on Wednesday 28 Jan 2015 (Local Time) from KSBD Reporting Station
Overcast Overcast  
Wind Chill: 59°   Ceiling: 12000
Heat Index: 59°   Visibility: 7mi
Dew Point: 46°   Wind: 0mph
Humidity: 63%   Direction: NA
Pressure: 30.12"   Gusts: NA
Location:  34.07°N, 117.32°W
Report Text: KSBD 290350Z 00000KT 7SM OVC120 15/08 A3012
Loading
Personal Weather Stations






























Interactive Weather Map New forecast layout! Learn more

10-Day Weather Forecast

Advertisements
Track Severe Weather on mobile